createdAt,value
2016-06-01T00:00:55.556Z,0
2016-06-01T00:01:55.403Z,0
2016-06-01T00:02:55.609Z,0
2016-06-01T00:03:55.502Z,0
2016-06-01T00:04:55.536Z,0
2016-06-01T00:05:55.726Z,0
2016-06-01T00:06:55.776Z,0
2016-06-01T00:07:55.810Z,0
2016-06-01T00:08:55.859Z,0
2016-06-01T00:09:55.899Z,0
2016-06-01T00:10:55.960Z,0
2016-06-01T00:11:55.878Z,0
2016-06-01T00:12:56.080Z,0
2016-06-01T00:13:56.171Z,0
2016-06-01T00:14:56.218Z,0
2016-06-01T00:15:56.260Z,0
2016-06-01T00:16:56.320Z,0
2016-06-01T00:17:56.348Z,0
2016-06-01T00:18:56.391Z,0
2016-06-01T00:19:56.446Z,0
2016-06-01T00:20:56.327Z,0
2016-06-01T00:21:56.520Z,0
2016-06-01T00:22:56.604Z,0
2016-06-01T00:23:56.502Z,0
2016-06-01T00:24:56.692Z,0
2016-06-01T00:25:56.540Z,0
2016-06-01T00:26:56.575Z,0
2016-06-01T00:27:56.767Z,0
2016-06-01T00:28:56.802Z,0
2016-06-01T00:29:56.836Z,0
2016-06-01T00:30:56.886Z,0
2016-06-01T00:31:56.921Z,0
2016-06-01T00:32:56.970Z,0
2016-06-01T00:33:57.005Z,0
2016-06-01T00:34:56.883Z,0
2016-06-01T00:35:56.917Z,0
2016-06-01T00:36:56.811Z,0
2016-06-01T00:37:57.000Z,0
2016-06-01T00:38:57.612Z,0
2016-06-01T00:39:57.240Z,0
2016-06-01T00:40:57.290Z,0
2016-06-01T00:41:57.339Z,0
2016-06-01T00:42:57.342Z,0
2016-06-01T00:43:57.391Z,0
2016-06-01T00:44:57.425Z,0
2016-06-01T00:45:57.460Z,0
2016-06-01T00:46:57.493Z,0
2016-06-01T00:47:57.527Z,0
2016-06-01T00:48:57.577Z,0
2016-06-01T00:49:57.455Z,0
2016-06-01T00:50:57.488Z,0
2016-06-01T00:51:57.679Z,0
2016-06-01T00:52:57.557Z,0
2016-06-01T00:53:57.856Z,0
2016-06-01T00:54:57.796Z,0
2016-06-01T00:55:57.830Z,0
2016-06-01T00:56:57.879Z,0
2016-06-01T00:57:57.913Z,0
2016-06-01T00:58:57.963Z,0
2016-06-01T00:59:57.997Z,0
2016-06-01T01:00:58.031Z,0
2016-06-01T01:01:58.065Z,0
2016-06-01T01:02:58.131Z,0
2016-06-01T01:03:58.164Z,0
2016-06-01T01:04:58.182Z,0
2016-06-01T01:05:58.216Z,0
2016-06-01T01:06:58.266Z,0
2016-06-01T01:07:58.300Z,0
2016-06-01T01:08:59.115Z,0
2016-06-01T01:09:58.211Z,0
2016-06-01T01:10:58.417Z,0
2016-06-01T01:11:58.295Z,0
2016-06-01T01:12:58.485Z,0
2016-06-01T01:13:58.535Z,0
2016-06-01T01:14:58.569Z,0
2016-06-01T01:15:58.619Z,0
2016-06-01T01:16:58.355Z,0
2016-06-01T01:17:58.514Z,0
2016-06-01T01:18:58.704Z,0
2016-06-01T01:19:58.754Z,0
2016-06-01T01:20:58.788Z,0
2016-06-01T01:21:58.822Z,0
2016-06-01T01:22:58.871Z,0
2016-06-01T01:23:59.624Z,0
2016-06-01T01:24:58.783Z,0
2016-06-01T01:25:58.832Z,0
2016-06-01T01:26:59.023Z,0
2016-06-01T01:27:59.057Z,0
2016-06-01T01:28:59.091Z,0
2016-06-01T01:29:59.124Z,0
2016-06-01T01:30:59.173Z,0
2016-06-01T01:31:59.051Z,0
2016-06-01T01:32:59.086Z,0
2016-06-01T01:33:59.307Z,0
2016-06-01T01:34:59.341Z,0
2016-06-01T01:35:59.219Z,0
2016-06-01T01:36:59.393Z,0
2016-06-01T01:37:59.443Z,0
2016-06-01T01:38:59.477Z,0
2016-06-01T01:39:59.511Z,0
2016-06-01T01:40:59.560Z,0
2016-06-01T01:41:59.610Z,0
2016-06-01T01:42:59.644Z,0
2016-06-01T01:43:59.678Z,0
2016-06-01T01:44:59.711Z,0
2016-06-01T01:45:59.589Z,0
2016-06-01T01:46:59.780Z,0
2016-06-01T01:47:59.673Z,0
2016-06-01T01:48:59.535Z,0
2016-06-01T01:49:59.741Z,0
2016-06-01T01:50:59.931Z,0
2016-06-01T01:51:59.980Z,0
2016-06-01T01:53:00.015Z,0
2016-06-01T01:54:00.532Z,0
2016-06-01T01:54:59.910Z,0
2016-06-01T01:56:00.116Z,0
2016-06-01T01:57:00.010Z,0
2016-06-01T01:58:00.199Z,0
2016-06-01T01:59:00.234Z,0
2016-06-01T02:00:00.268Z,0
2016-06-01T02:01:00.301Z,0
2016-06-01T02:02:00.195Z,0
2016-06-01T02:03:00.228Z,0
2016-06-01T02:04:00.279Z,0
2016-06-01T02:05:00.453Z,0
2016-06-01T02:06:00.534Z,0
2016-06-01T02:07:00.537Z,0
2016-06-01T02:08:00.430Z,0
2016-06-01T02:09:00.588Z,0
2016-06-01T02:10:00.514Z,0
2016-06-01T02:11:00.688Z,0
2016-06-01T02:12:00.566Z,0
2016-06-01T02:13:00.772Z,0
2016-06-01T02:14:00.805Z,0
2016-06-01T02:15:00.683Z,0
2016-06-01T02:16:00.873Z,0
2016-06-01T02:17:00.923Z,0
2016-06-01T02:18:00.988Z,0
2016-06-01T02:19:01.006Z,0
2016-06-01T02:20:01.040Z,0
2016-06-01T02:21:00.918Z,0
2016-06-01T02:22:01.108Z,0
2016-06-01T02:23:01.141Z,0
2016-06-01T02:24:02.005Z,0
2016-06-01T02:25:01.226Z,0
2016-06-01T02:26:01.259Z,0
2016-06-01T02:27:01.137Z,0
2016-06-01T02:28:01.343Z,0
2016-06-01T02:29:01.376Z,0
2016-06-01T02:30:01.255Z,0
2016-06-01T02:31:01.305Z,0
2016-06-01T02:32:01.322Z,0
2016-06-01T02:33:01.373Z,0
2016-06-01T02:34:01.406Z,0
2016-06-01T02:35:01.596Z,0
2016-06-01T02:36:01.631Z,0
2016-06-01T02:37:01.508Z,0
2016-06-01T02:38:01.556Z,0
2016-06-01T02:39:02.075Z,0
2016-06-01T02:40:01.656Z,0
2016-06-01T02:41:01.831Z,0
2016-06-01T02:42:01.709Z,0
2016-06-01T02:43:01.900Z,4
2016-06-01T02:44:01.933Z,4
2016-06-01T02:45:01.810Z,4
2016-06-01T02:46:02.016Z,0
2016-06-01T02:47:02.050Z,0
2016-06-01T02:48:01.928Z,4
2016-06-01T02:49:02.181Z,4
2016-06-01T02:50:02.168Z,4
2016-06-01T02:51:02.326Z,4
2016-06-01T02:52:02.204Z,4
2016-06-01T02:53:02.333Z,4
2016-06-01T02:54:02.804Z,4
2016-06-01T02:55:02.213Z,4
2016-06-01T02:56:02.247Z,4
2016-06-01T02:57:02.421Z,4
2016-06-01T02:58:02.470Z,4
2016-06-01T02:59:02.505Z,0
2016-06-01T03:00:02.538Z,4
2016-06-01T03:01:02.573Z,4
2016-06-01T03:02:02.466Z,4
2016-06-01T03:03:02.671Z,4
2016-06-01T03:04:02.533Z,4
2016-06-01T03:05:02.740Z,4
2016-06-01T03:06:02.773Z,8
2016-06-01T03:07:02.807Z,8
2016-06-01T03:08:02.842Z,12
2016-06-01T03:09:02.906Z,12
2016-06-01T03:10:02.925Z,16
2016-06-01T03:11:02.958Z,12
2016-06-01T03:12:02.993Z,16
2016-06-01T03:13:03.026Z,16
2016-06-01T03:14:03.076Z,20
2016-06-01T03:15:03.125Z,20
2016-06-01T03:16:03.144Z,16
2016-06-01T03:17:03.178Z,16
2016-06-01T03:18:03.212Z,16
2016-06-01T03:19:03.261Z,12
2016-06-01T03:20:03.139Z,12
2016-06-01T03:21:03.345Z,16
2016-06-01T03:22:03.222Z,16
2016-06-01T03:23:03.413Z,12
2016-06-01T03:24:03.447Z,12
2016-06-01T03:25:03.497Z,12
2016-06-01T03:26:03.546Z,20
2016-06-01T03:27:03.564Z,20
2016-06-01T03:28:03.614Z,20
2016-06-01T03:29:03.491Z,20
2016-06-01T03:30:03.682Z,28
2016-06-01T03:31:03.560Z,28
2016-06-01T03:32:03.750Z,36
2016-06-01T03:33:03.784Z,48
2016-06-01T03:34:03.832Z,52
2016-06-01T03:35:03.710Z,64
2016-06-01T03:36:03.745Z,88
2016-06-01T03:37:03.935Z,120
2016-06-01T03:38:03.985Z,188
2016-06-01T03:39:04.346Z,292
2016-06-01T03:40:04.052Z,452
2016-06-01T03:41:04.086Z,632
2016-06-01T03:42:04.136Z,808
2016-06-01T03:43:04.029Z,944
2016-06-01T03:44:04.048Z,984
2016-06-01T03:45:04.098Z,956
2016-06-01T03:46:04.286Z,988
2016-06-01T03:47:04.321Z,1004
2016-06-01T03:48:04.370Z,1060
2016-06-01T03:49:04.420Z,1028
2016-06-01T03:50:04.438Z,928
2016-06-01T03:51:04.504Z,924
2016-06-01T03:52:04.521Z,992
2016-06-01T03:53:04.556Z,1048
2016-06-01T03:54:04.434Z,1056
2016-06-01T03:55:04.624Z,1092
2016-06-01T03:56:04.674Z,1148
2016-06-01T03:57:04.724Z,1168
2016-06-01T03:58:04.757Z,1156
2016-06-01T03:59:04.791Z,1172
2016-06-01T04:00:04.840Z,1228
2016-06-01T04:01:04.859Z,1272
2016-06-01T04:02:04.893Z,1304
2016-06-01T04:03:04.927Z,1336
2016-06-01T04:04:04.977Z,1380
2016-06-01T04:05:05.009Z,1428
2016-06-01T04:06:05.060Z,1476
2016-06-01T04:07:04.922Z,1468
2016-06-01T04:08:05.128Z,1464
2016-06-01T04:09:05.177Z,1564
2016-06-01T04:10:04.899Z,1668
2016-06-01T04:11:05.089Z,1700
2016-06-01T04:12:05.107Z,1728
2016-06-01T04:13:05.329Z,1732
2016-06-01T04:14:05.362Z,1752
2016-06-01T04:15:05.397Z,1776
2016-06-01T04:16:05.431Z,1744
2016-06-01T04:17:05.323Z,1700
2016-06-01T04:18:05.498Z,1660
2016-06-01T04:19:05.391Z,1672
2016-06-01T04:20:05.582Z,1636
2016-06-01T04:21:05.631Z,1572
2016-06-01T04:22:05.509Z,1532
2016-06-01T04:23:05.714Z,1488
2016-06-01T04:24:05.592Z,1404
2016-06-01T04:25:05.610Z,1272
2016-06-01T04:26:05.802Z,1164
2016-06-01T04:27:05.850Z,1132
2016-06-01T04:28:05.885Z,1176
2016-06-01T04:29:05.934Z,1208
2016-06-01T04:30:05.813Z,1184
2016-06-01T04:31:06.001Z,1216
2016-06-01T04:32:06.036Z,1192
2016-06-01T04:33:05.929Z,1164
2016-06-01T04:34:06.119Z,1164
2016-06-01T04:35:06.154Z,1188
2016-06-01T04:36:06.046Z,1284
2016-06-01T04:37:06.237Z,1280
2016-06-01T04:38:06.271Z,1264
2016-06-01T04:39:06.618Z,1228
2016-06-01T04:40:06.214Z,1212
2016-06-01T04:41:06.248Z,1184
2016-06-01T04:42:06.422Z,1136
2016-06-01T04:43:06.472Z,1116
2016-06-01T04:44:06.350Z,1128
2016-06-01T04:45:06.539Z,1180
2016-06-01T04:46:06.589Z,1168
2016-06-01T04:47:06.467Z,1216
2016-06-01T04:48:06.656Z,1280
2016-06-01T04:49:06.692Z,1344
2016-06-01T04:50:06.569Z,1300
2016-06-01T04:51:06.774Z,1280
2016-06-01T04:52:06.809Z,1292
2016-06-01T04:53:06.842Z,1376
2016-06-01T04:54:06.860Z,1544
2016-06-01T04:55:06.911Z,1648
2016-06-01T04:56:06.819Z,1612
2016-06-01T04:57:06.697Z,1580
2016-06-01T04:58:07.027Z,1504
2016-06-01T04:59:07.109Z,1480
2016-06-01T05:00:07.127Z,1504
2016-06-01T05:01:07.146Z,1528
2016-06-01T05:02:07.038Z,1556
2016-06-01T05:03:07.229Z,1584
2016-06-01T05:04:07.263Z,1576
2016-06-01T05:05:07.296Z,1532
2016-06-01T05:06:07.034Z,1512
2016-06-01T05:07:07.380Z,1380
2016-06-01T05:08:07.415Z,1212
2016-06-01T05:09:07.402Z,1128
2016-06-01T05:10:07.029Z,1112
2016-06-01T05:11:07.531Z,1164
2016-06-01T05:12:07.581Z,1156
2016-06-01T05:13:07.615Z,1024
2016-06-01T05:14:07.492Z,916
2016-06-01T05:15:07.683Z,880
2016-06-01T05:16:07.576Z,912
2016-06-01T05:17:07.767Z,992
2016-06-01T05:18:07.659Z,1028
2016-06-01T05:19:07.694Z,1120
2016-06-01T05:20:07.884Z,1220
2016-06-01T05:21:07.934Z,1488
2016-06-01T05:22:07.811Z,1856
2016-06-01T05:23:08.000Z,2332
2016-06-01T05:24:08.223Z,2732
2016-06-01T05:25:08.069Z,2804
2016-06-01T05:26:08.119Z,2608
2016-06-01T05:27:08.153Z,2156
2016-06-01T05:28:08.186Z,1804
2016-06-01T05:29:08.252Z,1580
2016-06-01T05:30:08.255Z,1588
2016-06-01T05:31:08.163Z,1504
2016-06-01T05:32:08.338Z,1336
2016-06-01T05:33:08.232Z,1272
2016-06-01T05:34:08.421Z,1352
2016-06-01T05:35:08.315Z,1360
2016-06-01T05:36:08.333Z,1308
2016-06-01T05:37:08.539Z,1220
2016-06-01T05:38:08.573Z,1120
2016-06-01T05:39:09.248Z,1060
2016-06-01T05:40:08.343Z,1144
2016-06-01T05:41:08.690Z,1248
2016-06-01T05:42:08.724Z,1260
2016-06-01T05:43:08.758Z,1256
2016-06-01T05:44:08.807Z,1312
2016-06-01T05:45:08.842Z,1344
2016-06-01T05:46:08.892Z,1452
2016-06-01T05:47:08.925Z,1560
2016-06-01T05:48:08.959Z,1596
2016-06-01T05:49:08.993Z,1796
2016-06-01T05:50:09.028Z,1768
2016-06-01T05:51:09.076Z,1660
2016-06-01T05:52:09.111Z,1764
2016-06-01T05:53:09.144Z,2000
2016-06-01T05:54:09.725Z,2280
2016-06-01T05:55:09.072Z,2516
2016-06-01T05:56:09.106Z,2664
2016-06-01T05:57:09.171Z,2656
2016-06-01T05:58:09.189Z,2840
2016-06-01T05:59:09.239Z,2696
2016-06-01T06:00:09.273Z,2380
2016-06-01T06:01:09.322Z,2440
2016-06-01T06:02:09.497Z,2472
2016-06-01T06:03:09.531Z,2616
2016-06-01T06:04:09.565Z,2500
2016-06-01T06:05:09.613Z,2664
2016-06-01T06:06:09.648Z,2668
2016-06-01T06:07:09.698Z,2768
2016-06-01T06:08:09.732Z,2800
2016-06-01T06:09:09.749Z,2720
2016-06-01T06:10:09.799Z,2892
2016-06-01T06:11:09.693Z,3164
2016-06-01T06:12:09.727Z,3336
2016-06-01T06:13:09.918Z,3252
2016-06-01T06:14:09.810Z,3068
2016-06-01T06:15:10.000Z,3560
2016-06-01T06:16:10.034Z,4052
2016-06-01T06:17:10.068Z,4368
2016-06-01T06:18:09.977Z,5076
2016-06-01T06:19:10.167Z,4160
2016-06-01T06:20:10.186Z,4116
2016-06-01T06:21:10.235Z,3824
2016-06-01T06:22:10.113Z,3368
2016-06-01T06:23:10.304Z,3760
2016-06-01T06:24:10.822Z,4292
2016-06-01T06:25:10.387Z,3704
2016-06-01T06:26:10.420Z,3700
2016-06-01T06:27:10.470Z,3160
2016-06-01T06:28:10.519Z,2792
2016-06-01T06:29:10.383Z,2544
2016-06-01T06:30:10.588Z,2660
2016-06-01T06:31:10.449Z,2884
2016-06-01T06:32:10.655Z,3172
2016-06-01T06:33:10.689Z,3740
2016-06-01T06:34:10.739Z,3640
2016-06-01T06:35:10.789Z,4128
2016-06-01T06:36:10.651Z,4228
2016-06-01T06:37:10.857Z,4080
2016-06-01T06:38:10.906Z,5004
2016-06-01T06:39:10.487Z,4812
2016-06-01T06:40:10.818Z,3604
2016-06-01T06:41:11.008Z,3260
2016-06-01T06:42:11.043Z,3084
2016-06-01T06:43:11.091Z,3880
2016-06-01T06:44:11.126Z,3804
2016-06-01T06:45:11.159Z,3700
2016-06-01T06:46:11.178Z,4540
2016-06-01T06:47:11.227Z,4936
2016-06-01T06:48:11.276Z,5208
2016-06-01T06:49:11.311Z,4656
2016-06-01T06:50:11.376Z,4380
2016-06-01T06:51:11.395Z,3760
2016-06-01T06:52:11.428Z,3564
2016-06-01T06:53:11.477Z,3580
2016-06-01T06:54:12.167Z,3796
2016-06-01T06:55:11.545Z,3908
2016-06-01T06:56:11.439Z,3624
2016-06-01T06:57:11.317Z,4008
2016-06-01T06:58:11.664Z,4120
2016-06-01T06:59:11.713Z,3368
2016-06-01T07:00:11.746Z,3384
2016-06-01T07:01:11.780Z,3676
2016-06-01T07:02:11.830Z,3664
2016-06-01T07:03:11.864Z,4940
2016-06-01T07:04:11.898Z,5208
2016-06-01T07:05:11.792Z,4484
2016-06-01T07:06:11.997Z,4012
2016-06-01T07:07:12.015Z,4392
2016-06-01T07:08:11.909Z,4636
2016-06-01T07:09:12.365Z,4204
2016-06-01T07:10:12.149Z,3612
2016-06-01T07:11:12.026Z,3264
2016-06-01T07:12:12.201Z,3184
2016-06-01T07:13:12.251Z,3060
2016-06-01T07:14:12.299Z,3232
2016-06-01T07:15:12.193Z,3456
2016-06-01T07:16:12.211Z,3256
2016-06-01T07:17:12.418Z,3024
2016-06-01T07:18:12.435Z,3016
2016-06-01T07:19:12.470Z,3028
2016-06-01T07:20:12.535Z,2864
2016-06-01T07:21:12.553Z,2828
2016-06-01T07:22:12.587Z,3004
2016-06-01T07:23:12.636Z,3104
2016-06-01T07:24:13.217Z,3248
2016-06-01T07:25:12.876Z,3468
2016-06-01T07:26:12.739Z,3728
2016-06-01T07:27:12.772Z,3668
2016-06-01T07:28:12.666Z,3304
2016-06-01T07:29:12.872Z,3108
2016-06-01T07:30:12.889Z,3044
2016-06-01T07:31:12.799Z,3632
2016-06-01T07:32:12.989Z,3468
2016-06-01T07:33:13.039Z,3344
2016-06-01T07:34:12.900Z,3328
2016-06-01T07:35:13.106Z,3844
2016-06-01T07:36:13.313Z,4996
2016-06-01T07:37:13.174Z,6932
2016-06-01T07:38:13.051Z,6244
2016-06-01T07:39:13.820Z,4868
2016-06-01T07:40:13.291Z,3380
2016-06-01T07:41:13.341Z,2848
2016-06-01T07:42:13.360Z,2608
2016-06-01T07:43:13.425Z,2412
2016-06-01T07:44:13.459Z,2528
2016-06-01T07:45:13.476Z,3024
2016-06-01T07:46:13.385Z,3476
2016-06-01T07:47:13.263Z,3500
2016-06-01T07:48:13.595Z,3876
2016-06-01T07:49:13.332Z,4232
2016-06-01T07:50:13.521Z,4344
2016-06-01T07:51:13.712Z,3956
2016-06-01T07:52:13.761Z,3088
2016-06-01T07:53:13.654Z,2692
2016-06-01T07:54:14.095Z,2744
2016-06-01T07:55:13.879Z,3652
2016-06-01T07:56:13.756Z,4004
2016-06-01T07:57:13.806Z,4400
2016-06-01T07:58:13.840Z,4932
2016-06-01T07:59:14.030Z,4552
2016-06-01T08:00:13.768Z,4416
2016-06-01T08:01:14.097Z,4184
2016-06-01T08:02:14.147Z,3604
2016-06-01T08:03:14.197Z,3688
2016-06-01T08:04:14.075Z,3044
2016-06-01T08:05:14.108Z,2604
2016-06-01T08:06:14.143Z,3316
2016-06-01T08:07:14.349Z,2972
2016-06-01T08:08:14.383Z,2720
2016-06-01T08:09:14.619Z,2556
2016-06-01T08:10:14.450Z,2544
2016-06-01T08:11:14.343Z,3136
2016-06-01T08:12:14.534Z,4032
2016-06-01T08:13:14.427Z,5048
2016-06-01T08:14:14.477Z,5404
2016-06-01T08:15:14.496Z,5056
2016-06-01T08:16:14.545Z,4872
2016-06-01T08:17:14.579Z,4244
2016-06-01T08:18:14.784Z,3724
2016-06-01T08:19:14.662Z,4012
2016-06-01T08:20:14.712Z,3708
2016-06-01T08:21:14.590Z,2736
2016-06-01T08:22:14.796Z,2396
2016-06-01T08:23:14.985Z,2168
2016-06-01T08:24:15.175Z,2248
2016-06-01T08:25:15.054Z,2012
2016-06-01T08:26:15.087Z,1744
2016-06-01T08:27:15.137Z,1608
2016-06-01T08:28:15.170Z,1864
2016-06-01T08:29:15.205Z,2048
2016-06-01T08:30:14.942Z,2232
2016-06-01T08:31:15.148Z,2268
2016-06-01T08:32:15.338Z,2496
2016-06-01T08:33:15.355Z,2556
2016-06-01T08:34:15.422Z,2708
2016-06-01T08:35:15.471Z,2744
2016-06-01T08:36:15.317Z,3048
2016-06-01T08:37:15.383Z,3432
2016-06-01T08:38:15.416Z,3776
2016-06-01T08:39:15.903Z,4368
2016-06-01T08:40:15.641Z,4948
2016-06-01T08:41:15.533Z,5600
2016-06-01T08:42:15.568Z,6032
2016-06-01T08:43:15.774Z,5848
2016-06-01T08:44:15.652Z,5676
2016-06-01T08:45:15.826Z,5676
2016-06-01T08:46:15.719Z,5696
2016-06-01T08:47:15.910Z,5612
2016-06-01T08:48:15.944Z,5696
2016-06-01T08:49:15.852Z,5768
2016-06-01T08:50:15.870Z,6344
2016-06-01T08:51:15.920Z,6988
2016-06-01T08:52:16.110Z,7156
2016-06-01T08:53:16.145Z,7448
2016-06-01T08:54:16.069Z,7684
2016-06-01T08:55:16.071Z,7764
2016-06-01T08:56:16.262Z,7948
2016-06-01T08:57:16.312Z,8028
2016-06-01T08:58:16.033Z,8504
2016-06-01T08:59:16.222Z,8944
2016-06-01T09:00:16.445Z,9848
2016-06-01T09:01:16.462Z,10532
2016-06-01T09:02:16.356Z,10680
2016-06-01T09:03:16.547Z,10568
2016-06-01T09:04:16.439Z,10616
2016-06-01T09:05:16.630Z,10232
2016-06-01T09:06:16.664Z,8864
2016-06-01T09:07:16.557Z,8956
2016-06-01T09:08:16.747Z,8136
2016-06-01T09:09:17.249Z,6916
2016-06-01T09:10:16.846Z,6684
2016-06-01T09:11:16.849Z,5960
2016-06-01T09:12:16.899Z,5976
2016-06-01T09:13:16.949Z,6296
2016-06-01T09:14:16.982Z,7116
2016-06-01T09:15:16.736Z,8080
2016-06-01T09:16:16.935Z,8708
2016-06-01T09:17:17.165Z,9048
2016-06-01T09:18:17.222Z,9116
2016-06-01T09:19:17.281Z,9400
2016-06-01T09:20:17.369Z,8848
2016-06-01T09:21:17.240Z,8460
2016-06-01T09:22:17.438Z,8220
2016-06-01T09:23:17.325Z,7556
2016-06-01T09:24:17.398Z,7608
2016-06-01T09:25:17.269Z,5536
2016-06-01T09:26:17.478Z,5492
2016-06-01T09:27:17.671Z,5840
2016-06-01T09:28:17.551Z,6360
2016-06-01T09:29:17.620Z,7332
2016-06-01T09:30:17.798Z,7452
2016-06-01T09:31:17.847Z,7308
2016-06-01T09:32:17.743Z,5700
2016-06-01T09:33:17.778Z,5488
2016-06-01T09:34:17.969Z,5884
2016-06-01T09:35:18.004Z,6192
2016-06-01T09:36:17.898Z,6752
2016-06-01T09:37:17.948Z,7404
2016-06-01T09:38:17.997Z,7784
2016-06-01T09:39:18.907Z,7888
2016-06-01T09:40:19.175Z,6840
2016-06-01T09:41:18.101Z,6880
2016-06-01T09:42:18.135Z,7428
2016-06-01T09:43:18.387Z,7984
2016-06-01T09:44:18.390Z,8020
2016-06-01T09:45:18.425Z,7876
2016-06-01T09:46:18.459Z,7744
2016-06-01T09:47:18.509Z,7928
2016-06-01T09:48:18.543Z,7968
2016-06-01T09:49:18.592Z,8632
2016-06-01T09:50:18.626Z,8152
2016-06-01T09:51:18.676Z,7968
2016-06-01T09:52:18.695Z,7844
2016-06-01T09:53:18.744Z,7164
2016-06-01T09:54:18.808Z,7052
2016-06-01T09:55:18.937Z,5768
2016-06-01T09:56:18.705Z,4976
2016-06-01T09:57:18.755Z,5272
2016-06-01T09:58:18.772Z,5132
2016-06-01T09:59:18.978Z,5000
2016-06-01T10:00:19.013Z,5196
2016-06-01T10:01:19.047Z,5284
2016-06-01T10:02:18.940Z,6284
2016-06-01T10:03:19.146Z,6248
2016-06-01T10:04:19.023Z,5772
2016-06-01T10:05:19.058Z,6224
2016-06-01T10:06:19.247Z,7420
2016-06-01T10:07:19.141Z,8864
2016-06-01T10:08:19.346Z,9876
2016-06-01T10:09:19.412Z,11016
2016-06-01T10:10:19.430Z,11440
2016-06-01T10:11:19.308Z,13084
2016-06-01T10:12:19.499Z,15068
2016-06-01T10:13:19.548Z,15652
2016-06-01T10:14:19.456Z,16800
2016-06-01T10:15:19.632Z,16224
2016-06-01T10:16:19.681Z,15808
2016-06-01T10:17:19.698Z,15440
2016-06-01T10:18:19.764Z,15336
2016-06-01T10:19:19.470Z,14172
2016-06-01T10:20:19.520Z,14436
2016-06-01T10:21:19.850Z,14184
2016-06-01T10:22:19.743Z,13704
2016-06-01T10:23:19.950Z,13288
2016-06-01T10:24:19.984Z,13972
2016-06-01T10:25:20.784Z,15364
2016-06-01T10:26:20.067Z,15976
2016-06-01T10:27:20.116Z,18048
2016-06-01T10:28:20.166Z,17760
2016-06-01T10:29:20.216Z,15888
2016-06-01T10:30:20.234Z,17056
2016-06-01T10:31:20.299Z,17088
2016-06-01T10:32:20.317Z,15580
2016-06-01T10:33:20.352Z,10080
2016-06-01T10:34:20.401Z,7412
2016-06-01T10:35:20.435Z,7380
2016-06-01T10:36:20.469Z,7240
2016-06-01T10:37:20.533Z,7464
2016-06-01T10:38:20.412Z,7288
2016-06-01T10:39:20.618Z,5656
2016-06-01T10:40:21.323Z,4480
2016-06-01T10:41:20.702Z,4340
2016-06-01T10:42:20.751Z,4460
2016-06-01T10:43:20.769Z,4852
2016-06-01T10:44:20.818Z,4792
2016-06-01T10:45:20.868Z,4952
2016-06-01T10:46:20.886Z,5700
2016-06-01T10:47:20.796Z,6424
2016-06-01T10:48:20.829Z,6736
2016-06-01T10:49:20.879Z,6584
2016-06-01T10:50:21.054Z,6352
2016-06-01T10:51:21.104Z,5796
2016-06-01T10:52:20.981Z,5072
2016-06-01T10:53:21.170Z,4720
2016-06-01T10:54:20.923Z,4460
2016-06-01T10:55:21.489Z,4220
2016-06-01T10:56:21.351Z,4156
2016-06-01T10:57:21.197Z,4104
2016-06-01T10:58:21.247Z,4336
2016-06-01T10:59:21.422Z,4480
2016-06-01T11:00:21.159Z,4248
2016-06-01T11:01:21.349Z,4236
2016-06-01T11:02:21.538Z,4308
2016-06-01T11:03:21.572Z,4388
2016-06-01T11:04:21.481Z,4464
2016-06-01T11:05:21.656Z,4512
2016-06-01T11:06:21.549Z,4676
2016-06-01T11:07:21.755Z,5156
2016-06-01T11:08:21.789Z,5316
2016-06-01T11:09:21.917Z,5656
2016-06-01T11:10:22.560Z,6132
2016-06-01T11:11:21.907Z,5892
2016-06-01T11:12:21.956Z,5496
2016-06-01T11:13:21.834Z,5092
2016-06-01T11:14:22.024Z,5088
2016-06-01T11:15:21.918Z,5224
2016-06-01T11:16:22.107Z,5280
2016-06-01T11:17:21.845Z,5260
2016-06-01T11:18:22.066Z,5128
2016-06-01T11:19:22.226Z,5128
2016-06-01T11:20:22.259Z,5128
2016-06-01T11:21:22.293Z,5180
2016-06-01T11:22:22.342Z,5628
2016-06-01T11:23:22.220Z,6276
2016-06-01T11:24:23.270Z,7760
2016-06-01T11:25:22.476Z,9356
2016-06-01T11:26:22.369Z,10080
2016-06-01T11:27:22.387Z,11904
2016-06-01T11:28:22.578Z,11512
2016-06-01T11:29:22.612Z,9632
2016-06-01T11:30:22.661Z,8748
2016-06-01T11:31:22.382Z,8652
2016-06-01T11:32:22.572Z,8744
2016-06-01T11:33:22.778Z,8236
2016-06-01T11:34:22.656Z,7384
2016-06-01T11:35:22.862Z,6460
2016-06-01T11:36:22.740Z,6200
2016-06-01T11:37:22.945Z,6208
2016-06-01T11:38:22.839Z,6232
2016-06-01T11:39:22.905Z,6684
2016-06-01T11:40:23.110Z,7228
2016-06-01T11:41:23.112Z,7448
2016-06-01T11:42:23.130Z,7312
2016-06-01T11:43:23.024Z,7052
2016-06-01T11:44:23.214Z,7224
2016-06-01T11:45:23.249Z,8144
2016-06-01T11:46:23.313Z,8496
2016-06-01T11:47:23.347Z,8888
2016-06-01T11:48:23.397Z,9108
2016-06-01T11:49:23.415Z,9408
2016-06-01T11:50:23.465Z,9676
2016-06-01T11:51:23.499Z,11020
2016-06-01T11:52:23.407Z,13860
2016-06-01T11:53:23.582Z,23392
2016-06-01T11:54:23.506Z,23776
2016-06-01T11:55:24.603Z,39552
2016-06-01T11:56:23.575Z,38048
2016-06-01T11:57:23.765Z,54880
2016-06-01T11:58:23.798Z,25696
2016-06-01T11:59:23.833Z,49056
2016-06-01T12:00:23.882Z,42528
2016-06-01T12:01:23.917Z,54464
2016-06-01T12:02:23.950Z,83264
2016-06-01T12:03:24.000Z,51488
2016-06-01T12:04:24.050Z,20960
2016-06-01T12:05:24.100Z,20384
2016-06-01T12:06:24.132Z,23200
2016-06-01T12:07:24.026Z,26784
2016-06-01T12:08:24.061Z,20416
2016-06-01T12:09:25.547Z,18592
2016-06-01T12:10:24.518Z,15716
2016-06-01T12:11:24.350Z,13644
2016-06-01T12:12:24.399Z,13580
2016-06-01T12:13:24.292Z,13852
2016-06-01T12:14:24.499Z,14332
2016-06-01T12:15:24.360Z,14384
2016-06-01T12:16:24.582Z,18752
2016-06-01T12:17:24.615Z,19808
2016-06-01T12:18:24.665Z,25440
2016-06-01T12:19:24.558Z,35680
2016-06-01T12:20:24.748Z,22304
2016-06-01T12:21:24.813Z,31072
2016-06-01T12:22:24.691Z,22752
2016-06-01T12:23:24.898Z,17056
2016-06-01T12:24:24.931Z,19808
2016-06-01T12:25:25.653Z,17184
2016-06-01T12:26:25.015Z,11284
2016-06-01T12:27:24.923Z,12052
2016-06-01T12:28:24.958Z,12672
2016-06-01T12:29:25.164Z,21536
2016-06-01T12:30:25.181Z,21120
2016-06-01T12:31:25.091Z,17504
2016-06-01T12:32:24.968Z,15244
2016-06-01T12:33:25.174Z,11652
2016-06-01T12:34:25.380Z,9716
2016-06-01T12:35:25.430Z,13088
2016-06-01T12:36:25.463Z,10368
2016-06-01T12:37:25.514Z,10896
2016-06-01T12:38:25.578Z,13604
2016-06-01T12:39:25.472Z,11316
2016-06-01T12:40:26.615Z,18592
2016-06-01T12:41:25.539Z,74144
2016-06-01T12:42:25.730Z,29536
2016-06-01T12:43:25.780Z,28320
2016-06-01T12:44:25.813Z,43936
2016-06-01T12:45:25.721Z,15536
2016-06-01T12:46:25.600Z,31936
2016-06-01T12:47:25.946Z,14000
2016-06-01T12:48:26.011Z,11676
2016-06-01T12:49:25.733Z,11204
2016-06-01T12:50:25.923Z,18944
2016-06-01T12:51:26.129Z,12316
2016-06-01T12:52:26.038Z,11896
2016-06-01T12:53:26.213Z,10172
2016-06-01T12:54:26.137Z,11504
2016-06-01T12:55:26.640Z,10884
2016-06-01T12:56:26.190Z,8976
2016-06-01T12:57:26.239Z,8928
2016-06-01T12:58:26.445Z,7608
2016-06-01T12:59:26.495Z,5864
2016-06-01T13:00:26.512Z,4836
2016-06-01T13:01:26.578Z,4744
2016-06-01T13:02:26.456Z,4320
2016-06-01T13:03:26.676Z,4272
2016-06-01T13:04:26.695Z,5480
2016-06-01T13:05:26.604Z,6716
2016-06-01T13:06:26.778Z,7420
2016-06-01T13:07:26.844Z,8852
2016-06-01T13:08:26.877Z,7860
2016-06-01T13:09:27.224Z,7120
2016-06-01T13:10:26.852Z,8232
2016-06-01T13:11:27.011Z,7680
2016-06-01T13:12:27.044Z,8636
2016-06-01T13:13:27.094Z,9596
2016-06-01T13:14:27.143Z,10768
2016-06-01T13:15:27.177Z,10432
2016-06-01T13:16:27.071Z,9064
2016-06-01T13:17:27.261Z,9456
2016-06-01T13:18:27.311Z,13600
2016-06-01T13:19:27.360Z,8572
2016-06-01T13:20:27.394Z,9612
2016-06-01T13:21:27.272Z,10412
2016-06-01T13:22:27.478Z,11000
2016-06-01T13:23:27.512Z,10840
2016-06-01T13:24:28.265Z,11460
2016-06-01T13:25:28.518Z,15012
2016-06-01T13:26:27.645Z,13812
2016-06-01T13:27:27.694Z,12856
2016-06-01T13:28:27.588Z,16036
2016-06-01T13:29:27.778Z,24544
2016-06-01T13:30:27.828Z,23712
2016-06-01T13:31:27.720Z,17440
2016-06-01T13:32:27.754Z,47968
2016-06-01T13:33:27.945Z,48096
2016-06-01T13:34:27.994Z,51040
2016-06-01T13:35:28.045Z,45184
2016-06-01T13:36:28.078Z,22208